sensor_id;sensor_type;location;lat;lon;timestamp;P1;durP1;ratioP1;P2;durP2;ratioP2
54735;SDS011;40632;51.442;11.936;2022-08-11T00:01:04;6.57;;;2.13;;
54735;SDS011;40632;51.442;11.936;2022-08-11T00:03:32;4.00;;;1.60;;
54735;SDS011;40632;51.442;11.936;2022-08-11T00:05:59;8.10;;;2.00;;
54735;SDS011;40632;51.442;11.936;2022-08-11T00:08:29;3.20;;;2.03;;
54735;SDS011;40632;51.442;11.936;2022-08-11T00:10:56;3.45;;;1.80;;
54735;SDS011;40632;51.442;11.936;2022-08-11T00:13:30;5.75;;;2.10;;
54735;SDS011;40632;51.442;11.936;2022-08-11T00:15:57;6.05;;;2.03;;
54735;SDS011;40632;51.442;11.936;2022-08-11T00:18:23;3.15;;;1.88;;
54735;SDS011;40632;51.442;11.936;2022-08-11T00:20:49;5.45;;;2.00;;
54735;SDS011;40632;51.442;11.936;2022-08-11T00:23:16;5.30;;;1.98;;
54735;SDS011;40632;51.442;11.936;2022-08-11T00:25:46;4.72;;;1.75;;
54735;SDS011;40632;51.442;11.936;2022-08-11T00:28:23;3.83;;;1.42;;
54735;SDS011;40632;51.442;11.936;2022-08-11T00:30:50;4.25;;;1.48;;
54735;SDS011;40632;51.442;11.936;2022-08-11T00:33:17;3.10;;;1.60;;
54735;SDS011;40632;51.442;11.936;2022-08-11T00:35:46;3.17;;;1.65;;
54735;SDS011;40632;51.442;11.936;2022-08-11T00:38:13;5.30;;;1.60;;
54735;SDS011;40632;51.442;11.936;2022-08-11T00:40:41;8.80;;;1.90;;
54735;SDS011;40632;51.442;11.936;2022-08-11T00:43:19;2.45;;;1.52;;
54735;SDS011;40632;51.442;11.936;2022-08-11T00:46:01;3.22;;;1.55;;
54735;SDS011;40632;51.442;11.936;2022-08-11T00:48:37;3.88;;;1.77;;
54735;SDS011;40632;51.442;11.936;2022-08-11T00:51:12;3.17;;;1.60;;
54735;SDS011;40632;51.442;11.936;2022-08-11T00:53:44;5.38;;;1.70;;
54735;SDS011;40632;51.442;11.936;2022-08-11T00:56:38;4.32;;;1.70;;
54735;SDS011;40632;51.442;11.936;2022-08-11T00:59:47;6.03;;;1.67;;
54735;SDS011;40632;51.442;11.936;2022-08-11T01:02:37;5.13;;;1.50;;
54735;SDS011;40632;51.442;11.936;2022-08-11T01:05:30;4.55;;;1.85;;
54735;SDS011;40632;51.442;11.936;2022-08-11T01:11:37;2.10;;;1.38;;
54735;SDS011;40632;51.442;11.936;2022-08-11T01:20:54;4.65;;;1.42;;
54735;SDS011;40632;51.442;11.936;2022-08-11T01:23:53;3.78;;;1.85;;
54735;SDS011;40632;51.442;11.936;2022-08-11T01:36:11;4.13;;;2.10;;
54735;SDS011;40632;51.442;11.936;2022-08-11T01:39:17;5.22;;;1.95;;
54735;SDS011;40632;51.442;11.936;2022-08-11T01:48:07;4.22;;;2.17;;
54735;SDS011;40632;51.442;11.936;2022-08-11T01:50:45;5.63;;;2.10;;
54735;SDS011;40632;51.442;11.936;2022-08-11T01:53:29;4.70;;;2.00;;
54735;SDS011;40632;51.442;11.936;2022-08-11T01:56:05;7.20;;;2.08;;
54735;SDS011;40632;51.442;11.936;2022-08-11T01:58:42;7.75;;;1.88;;
54735;SDS011;40632;51.442;11.936;2022-08-11T02:01:23;9.68;;;2.30;;
54735;SDS011;40632;51.442;11.936;2022-08-11T02:04:04;6.80;;;1.80;;
54735;SDS011;40632;51.442;11.936;2022-08-11T02:06:40;7.35;;;2.50;;
54735;SDS011;40632;51.442;11.936;2022-08-11T02:09:13;6.75;;;2.55;;
54735;SDS011;40632;51.442;11.936;2022-08-11T02:11:50;7.40;;;2.00;;
54735;SDS011;40632;51.442;11.936;2022-08-11T02:14:20;7.28;;;2.60;;
54735;SDS011;40632;51.442;11.936;2022-08-11T02:17:04;4.88;;;1.98;;
54735;SDS011;40632;51.442;11.936;2022-08-11T02:19:42;4.38;;;2.03;;
54735;SDS011;40632;51.442;11.936;2022-08-11T02:22:18;4.72;;;2.20;;
54735;SDS011;40632;51.442;11.936;2022-08-11T02:24:57;7.07;;;3.00;;
54735;SDS011;40632;51.442;11.936;2022-08-11T02:27:30;8.75;;;2.03;;
54735;SDS011;40632;51.442;11.936;2022-08-11T02:30:03;6.93;;;2.05;;
54735;SDS011;40632;51.442;11.936;2022-08-11T02:32:34;6.22;;;2.40;;
54735;SDS011;40632;51.442;11.936;2022-08-11T02:35:12;3.60;;;1.90;;
54735;SDS011;40632;51.442;11.936;2022-08-11T02:37:47;4.75;;;2.28;;
54735;SDS011;40632;51.442;11.936;2022-08-11T02:40:26;5.47;;;2.63;;
54735;SDS011;40632;51.442;11.936;2022-08-11T02:43:08;4.25;;;1.98;;
54735;SDS011;40632;51.442;11.936;2022-08-11T02:45:48;7.25;;;1.98;;
54735;SDS011;40632;51.442;11.936;2022-08-11T02:48:33;6.82;;;2.38;;
54735;SDS011;40632;51.442;11.936;2022-08-11T02:51:07;4.20;;;2.20;;
54735;SDS011;40632;51.442;11.936;2022-08-11T02:53:43;3.00;;;1.92;;
54735;SDS011;40632;51.442;11.936;2022-08-11T02:56:18;4.45;;;2.60;;
54735;SDS011;40632;51.442;11.936;2022-08-11T02:58:52;4.75;;;2.45;;
54735;SDS011;40632;51.442;11.936;2022-08-11T03:01:29;7.28;;;2.20;;
54735;SDS011;40632;51.442;11.936;2022-08-11T03:04:09;4.97;;;2.20;;
54735;SDS011;40632;51.442;11.936;2022-08-11T03:06:44;5.78;;;2.50;;
54735;SDS011;40632;51.442;11.936;2022-08-11T03:09:17;3.15;;;2.15;;
54735;SDS011;40632;51.442;11.936;2022-08-11T03:11:55;5.03;;;2.05;;
54735;SDS011;40632;51.442;11.936;2022-08-11T03:14:28;4.40;;;2.08;;
54735;SDS011;40632;51.442;11.936;2022-08-11T03:17:05;3.75;;;2.03;;
54735;SDS011;40632;51.442;11.936;2022-08-11T03:19:45;5.30;;;2.45;;
54735;SDS011;40632;51.442;11.936;2022-08-11T03:22:32;5.38;;;2.30;;
54735;SDS011;40632;51.442;11.936;2022-08-11T03:25:02;3.40;;;2.35;;
54735;SDS011;40632;51.442;11.936;2022-08-11T03:27:38;6.97;;;2.60;;
54735;SDS011;40632;51.442;11.936;2022-08-11T03:30:13;4.78;;;2.13;;
54735;SDS011;40632;51.442;11.936;2022-08-11T03:32:47;3.33;;;1.90;;
54735;SDS011;40632;51.442;11.936;2022-08-11T03:35:21;5.28;;;2.33;;
54735;SDS011;40632;51.442;11.936;2022-08-11T03:37:47;6.00;;;2.60;;
54735;SDS011;40632;51.442;11.936;2022-08-11T03:43:21;3.17;;;1.80;;
54735;SDS011;40632;51.442;11.936;2022-08-11T03:46:03;5.82;;;2.15;;
54735;SDS011;40632;51.442;11.936;2022-08-11T03:48:37;4.05;;;2.03;;
54735;SDS011;40632;51.442;11.936;2022-08-11T03:51:14;5.78;;;2.20;;
54735;SDS011;40632;51.442;11.936;2022-08-11T03:53:48;5.40;;;1.95;;
54735;SDS011;40632;51.442;11.936;2022-08-11T04:02:40;4.03;;;1.92;;
54735;SDS011;40632;51.442;11.936;2022-08-11T04:05:33;4.45;;;1.98;;
54735;SDS011;40632;51.442;11.936;2022-08-11T04:11:41;5.75;;;2.35;;
54735;SDS011;40632;51.442;11.936;2022-08-11T04:14:31;6.13;;;1.80;;
54735;SDS011;40632;51.442;11.936;2022-08-11T04:17:33;4.95;;;1.60;;
54735;SDS011;40632;51.442;11.936;2022-08-11T04:20:22;3.50;;;1.90;;
54735;SDS011;40632;51.442;11.936;2022-08-11T04:23:10;4.73;;;1.90;;
54735;SDS011;40632;51.442;11.936;2022-08-11T04:25:54;3.30;;;1.77;;
54735;SDS011;40632;51.442;11.936;2022-08-11T04:31:34;3.65;;;1.60;;
54735;SDS011;40632;51.442;11.936;2022-08-11T04:43:25;3.55;;;2.40;;
54735;SDS011;40632;51.442;11.936;2022-08-11T04:49:08;3.70;;;1.65;;
54735;SDS011;40632;51.442;11.936;2022-08-11T04:52:04;2.72;;;2.10;;
54735;SDS011;40632;51.442;11.936;2022-08-11T04:54:50;2.90;;;2.50;;
54735;SDS011;40632;51.442;11.936;2022-08-11T04:57:27;8.50;;;2.60;;
54735;SDS011;40632;51.442;11.936;2022-08-11T05:00:02;5.97;;;2.60;;
54735;SDS011;40632;51.442;11.936;2022-08-11T05:14:57;5.63;;;2.45;;
54735;SDS011;40632;51.442;11.936;2022-08-11T05:17:31;6.60;;;2.15;;
54735;SDS011;40632;51.442;11.936;2022-08-11T05:20:01;7.97;;;2.80;;
54735;SDS011;40632;51.442;11.936;2022-08-11T05:22:27;8.77;;;2.40;;
54735;SDS011;40632;51.442;11.936;2022-08-11T05:24:58;7.43;;;2.65;;
54735;SDS011;40632;51.442;11.936;2022-08-11T05:27:31;6.78;;;2.60;;
54735;SDS011;40632;51.442;11.936;2022-08-11T05:30:03;7.00;;;2.50;;
54735;SDS011;40632;51.442;11.936;2022-08-11T05:32:33;5.57;;;2.40;;
54735;SDS011;40632;51.442;11.936;2022-08-11T05:35:01;7.35;;;2.38;;
54735;SDS011;40632;51.442;11.936;2022-08-11T05:37:32;7.13;;;2.60;;
54735;SDS011;40632;51.442;11.936;2022-08-11T05:40:07;6.65;;;2.75;;
54735;SDS011;40632;51.442;11.936;2022-08-11T05:42:37;8.00;;;2.87;;
54735;SDS011;40632;51.442;11.936;2022-08-11T05:45:10;7.03;;;2.50;;
54735;SDS011;40632;51.442;11.936;2022-08-11T05:47:37;6.00;;;2.63;;
54735;SDS011;40632;51.442;11.936;2022-08-11T05:50:07;6.43;;;2.67;;
54735;SDS011;40632;51.442;11.936;2022-08-11T05:52:34;7.78;;;2.60;;
54735;SDS011;40632;51.442;11.936;2022-08-11T05:55:03;5.85;;;2.42;;
54735;SDS011;40632;51.442;11.936;2022-08-11T05:57:34;5.70;;;2.55;;
54735;SDS011;40632;51.442;11.936;2022-08-11T06:00:03;5.75;;;2.75;;
54735;SDS011;40632;51.442;11.936;2022-08-11T06:02:31;8.50;;;2.80;;
54735;SDS011;40632;51.442;11.936;2022-08-11T06:04:57;4.55;;;2.53;;
54735;SDS011;40632;51.442;11.936;2022-08-11T06:07:26;9.30;;;2.67;;
54735;SDS011;40632;51.442;11.936;2022-08-11T06:09:52;10.35;;;2.97;;
54735;SDS011;40632;51.442;11.936;2022-08-11T06:12:21;4.05;;;2.63;;
54735;SDS011;40632;51.442;11.936;2022-08-11T06:14:52;5.97;;;2.40;;
54735;SDS011;40632;51.442;11.936;2022-08-11T06:17:21;5.90;;;2.67;;
54735;SDS011;40632;51.442;11.936;2022-08-11T06:19:48;6.93;;;2.58;;
54735;SDS011;40632;51.442;11.936;2022-08-11T06:22:18;8.50;;;2.78;;
54735;SDS011;40632;51.442;11.936;2022-08-11T06:24:50;7.45;;;3.10;;
54735;SDS011;40632;51.442;11.936;2022-08-11T06:27:22;7.05;;;3.42;;
54735;SDS011;40632;51.442;11.936;2022-08-11T06:29:50;6.03;;;2.90;;
54735;SDS011;40632;51.442;11.936;2022-08-11T06:32:16;7.07;;;3.40;;
54735;SDS011;40632;51.442;11.936;2022-08-11T06:34:52;6.47;;;2.83;;
54735;SDS011;40632;51.442;11.936;2022-08-11T06:37:28;9.18;;;3.22;;
54735;SDS011;40632;51.442;11.936;2022-08-11T06:40:12;9.52;;;2.88;;
54735;SDS011;40632;51.442;11.936;2022-08-11T06:42:53;6.72;;;2.40;;
54735;SDS011;40632;51.442;11.936;2022-08-11T06:45:27;8.48;;;3.38;;
54735;SDS011;40632;51.442;11.936;2022-08-11T06:47:56;8.70;;;2.88;;
54735;SDS011;40632;51.442;11.936;2022-08-11T06:50:24;7.30;;;2.97;;
54735;SDS011;40632;51.442;11.936;2022-08-11T06:52:51;9.70;;;3.08;;
54735;SDS011;40632;51.442;11.936;2022-08-11T06:55:20;8.15;;;2.97;;
54735;SDS011;40632;51.442;11.936;2022-08-11T06:57:47;7.88;;;2.83;;
54735;SDS011;40632;51.442;11.936;2022-08-11T07:00:17;5.78;;;2.63;;
54735;SDS011;40632;51.442;11.936;2022-08-11T07:02:44;5.05;;;2.90;;
54735;SDS011;40632;51.442;11.936;2022-08-11T07:05:16;9.73;;;3.13;;
54735;SDS011;40632;51.442;11.936;2022-08-11T07:10:42;6.85;;;2.60;;
54735;SDS011;40632;51.442;11.936;2022-08-11T07:13:18;8.18;;;2.78;;
54735;SDS011;40632;51.442;11.936;2022-08-11T07:15:50;9.45;;;2.45;;
54735;SDS011;40632;51.442;11.936;2022-08-11T07:18:21;7.82;;;2.78;;
54735;SDS011;40632;51.442;11.936;2022-08-11T07:20:49;7.78;;;2.75;;
54735;SDS011;40632;51.442;11.936;2022-08-11T07:23:18;12.77;;;2.92;;
54735;SDS011;40632;51.442;11.936;2022-08-11T07:25:46;12.05;;;2.90;;
54735;SDS011;40632;51.442;11.936;2022-08-11T07:28:17;7.25;;;2.90;;
54735;SDS011;40632;51.442;11.936;2022-08-11T07:30:47;8.82;;;3.00;;
54735;SDS011;40632;51.442;11.936;2022-08-11T07:33:21;10.18;;;2.85;;
54735;SDS011;40632;51.442;11.936;2022-08-11T07:35:55;11.18;;;2.63;;
54735;SDS011;40632;51.442;11.936;2022-08-11T07:38:24;12.98;;;2.90;;
54735;SDS011;40632;51.442;11.936;2022-08-11T07:40:56;10.15;;;2.80;;
54735;SDS011;40632;51.442;11.936;2022-08-11T07:43:23;12.35;;;3.10;;
54735;SDS011;40632;51.442;11.936;2022-08-11T07:45:52;11.73;;;3.50;;
54735;SDS011;40632;51.442;11.936;2022-08-11T07:48:19;9.30;;;2.92;;
54735;SDS011;40632;51.442;11.936;2022-08-11T07:50:45;11.35;;;3.28;;
54735;SDS011;40632;51.442;11.936;2022-08-11T07:53:12;13.82;;;3.00;;
54735;SDS011;40632;51.442;11.936;2022-08-11T07:55:38;9.18;;;2.60;;
54735;SDS011;40632;51.442;11.936;2022-08-11T07:58:05;13.95;;;3.15;;
54735;SDS011;40632;51.442;11.936;2022-08-11T08:00:34;8.32;;;2.70;;
54735;SDS011;40632;51.442;11.936;2022-08-11T08:03:04;10.10;;;2.58;;
54735;SDS011;40632;51.442;11.936;2022-08-11T08:05:31;11.80;;;2.75;;
54735;SDS011;40632;51.442;11.936;2022-08-11T08:07:57;8.77;;;2.92;;
54735;SDS011;40632;51.442;11.936;2022-08-11T08:10:23;8.77;;;3.70;;
54735;SDS011;40632;51.442;11.936;2022-08-11T08:12:49;13.70;;;2.63;;
54735;SDS011;40632;51.442;11.936;2022-08-11T08:15:15;7.45;;;2.80;;
54735;SDS011;40632;51.442;11.936;2022-08-11T08:17:42;5.75;;;2.60;;
54735;SDS011;40632;51.442;11.936;2022-08-11T08:20:12;8.73;;;2.65;;
54735;SDS011;40632;51.442;11.936;2022-08-11T08:22:40;8.25;;;2.60;;
54735;SDS011;40632;51.442;11.936;2022-08-11T08:25:06;9.23;;;2.83;;
54735;SDS011;40632;51.442;11.936;2022-08-11T08:27:33;12.52;;;3.08;;
54735;SDS011;40632;51.442;11.936;2022-08-11T08:29:59;6.88;;;2.53;;
54735;SDS011;40632;51.442;11.936;2022-08-11T08:32:26;8.60;;;2.75;;
54735;SDS011;40632;51.442;11.936;2022-08-11T08:34:53;9.75;;;2.72;;
54735;SDS011;40632;51.442;11.936;2022-08-11T08:37:23;5.97;;;2.55;;
54735;SDS011;40632;51.442;11.936;2022-08-11T08:39:50;7.00;;;2.88;;
54735;SDS011;40632;51.442;11.936;2022-08-11T08:42:17;6.13;;;2.65;;
54735;SDS011;40632;51.442;11.936;2022-08-11T08:44:49;9.90;;;2.58;;
54735;SDS011;40632;51.442;11.936;2022-08-11T08:47:20;8.10;;;2.40;;
54735;SDS011;40632;51.442;11.936;2022-08-11T08:49:49;7.13;;;3.00;;
54735;SDS011;40632;51.442;11.936;2022-08-11T08:52:28;10.05;;;2.20;;
54735;SDS011;40632;51.442;11.936;2022-08-11T08:55:00;5.00;;;2.38;;
54735;SDS011;40632;51.442;11.936;2022-08-11T08:57:28;5.45;;;2.42;;
54735;SDS011;40632;51.442;11.936;2022-08-11T08:59:59;4.75;;;2.35;;
54735;SDS011;40632;51.442;11.936;2022-08-11T09:02:26;6.43;;;2.25;;
54735;SDS011;40632;51.442;11.936;2022-08-11T09:04:52;10.52;;;2.35;;
54735;SDS011;40632;51.442;11.936;2022-08-11T09:07:19;8.40;;;2.10;;
54735;SDS011;40632;51.442;11.936;2022-08-11T09:09:50;7.05;;;2.20;;
54735;SDS011;40632;51.442;11.936;2022-08-11T09:12:18;4.68;;;2.38;;
54735;SDS011;40632;51.442;11.936;2022-08-11T09:14:46;8.57;;;2.40;;
54735;SDS011;40632;51.442;11.936;2022-08-11T09:17:14;5.25;;;2.45;;
54735;SDS011;40632;51.442;11.936;2022-08-11T09:19:42;5.70;;;2.10;;
54735;SDS011;40632;51.442;11.936;2022-08-11T09:22:08;6.30;;;2.17;;
54735;SDS011;40632;51.442;11.936;2022-08-11T09:24:35;4.45;;;2.20;;
54735;SDS011;40632;51.442;11.936;2022-08-11T09:27:06;8.60;;;2.78;;
54735;SDS011;40632;51.442;11.936;2022-08-11T09:29:32;7.43;;;2.00;;
54735;SDS011;40632;51.442;11.936;2022-08-11T09:31:59;4.47;;;2.20;;
54735;SDS011;40632;51.442;11.936;2022-08-11T09:34:25;4.72;;;1.95;;
54735;SDS011;40632;51.442;11.936;2022-08-11T09:36:52;4.03;;;1.92;;
54735;SDS011;40632;51.442;11.936;2022-08-11T09:39:19;3.60;;;1.85;;
54735;SDS011;40632;51.442;11.936;2022-08-11T09:41:45;6.28;;;2.25;;
54735;SDS011;40632;51.442;11.936;2022-08-11T09:44:15;4.20;;;2.20;;
54735;SDS011;40632;51.442;11.936;2022-08-11T09:46:41;4.28;;;1.90;;
54735;SDS011;40632;51.442;11.936;2022-08-11T09:49:08;4.85;;;2.10;;
54735;SDS011;40632;51.442;11.936;2022-08-11T09:51:34;2.80;;;1.58;;
54735;SDS011;40632;51.442;11.936;2022-08-11T09:54:00;5.32;;;1.75;;
54735;SDS011;40632;51.442;11.936;2022-08-11T09:56:28;7.07;;;1.70;;
54735;SDS011;40632;51.442;11.936;2022-08-11T09:58:55;6.88;;;1.77;;
54735;SDS011;40632;51.442;11.936;2022-08-11T10:01:25;5.85;;;1.90;;
54735;SDS011;40632;51.442;11.936;2022-08-11T10:03:55;3.42;;;1.45;;
54735;SDS011;40632;51.442;11.936;2022-08-11T10:06:23;5.65;;;1.67;;
54735;SDS011;40632;51.442;11.936;2022-08-11T10:08:51;3.53;;;1.80;;
54735;SDS011;40632;51.442;11.936;2022-08-11T10:11:20;8.30;;;2.83;;
54735;SDS011;40632;51.442;11.936;2022-08-11T10:13:48;7.25;;;2.20;;
54735;SDS011;40632;51.442;11.936;2022-08-11T10:16:17;5.40;;;1.98;;
54735;SDS011;40632;51.442;11.936;2022-08-11T10:18:50;7.45;;;1.75;;
54735;SDS011;40632;51.442;11.936;2022-08-11T10:21:27;6.35;;;2.10;;
54735;SDS011;40632;51.442;11.936;2022-08-11T10:24:08;2.63;;;1.90;;
54735;SDS011;40632;51.442;11.936;2022-08-11T10:26:35;6.47;;;1.95;;
54735;SDS011;40632;51.442;11.936;2022-08-11T10:29:02;9.77;;;2.20;;
54735;SDS011;40632;51.442;11.936;2022-08-11T10:31:30;3.80;;;1.95;;
54735;SDS011;40632;51.442;11.936;2022-08-11T10:33:58;4.57;;;1.90;;
54735;SDS011;40632;51.442;11.936;2022-08-11T10:36:26;5.70;;;2.10;;
54735;SDS011;40632;51.442;11.936;2022-08-11T10:38:54;8.45;;;2.03;;
54735;SDS011;40632;51.442;11.936;2022-08-11T10:41:20;7.20;;;1.85;;
54735;SDS011;40632;51.442;11.936;2022-08-11T10:43:46;3.95;;;1.70;;
54735;SDS011;40632;51.442;11.936;2022-08-11T10:46:12;5.75;;;2.53;;
54735;SDS011;40632;51.442;11.936;2022-08-11T10:48:38;5.43;;;1.80;;
54735;SDS011;40632;51.442;11.936;2022-08-11T10:51:07;3.90;;;1.80;;
54735;SDS011;40632;51.442;11.936;2022-08-11T10:53:33;5.60;;;1.77;;
54735;SDS011;40632;51.442;11.936;2022-08-11T10:56:00;3.08;;;1.50;;
54735;SDS011;40632;51.442;11.936;2022-08-11T10:58:28;4.70;;;1.80;;
54735;SDS011;40632;51.442;11.936;2022-08-11T11:00:55;3.38;;;1.75;;
54735;SDS011;40632;51.442;11.936;2022-08-11T11:03:22;4.45;;;1.85;;
54735;SDS011;40632;51.442;11.936;2022-08-11T11:05:50;5.03;;;1.88;;
54735;SDS011;40632;51.442;11.936;2022-08-11T11:08:23;2.47;;;1.65;;
54735;SDS011;40632;51.442;11.936;2022-08-11T11:10:54;5.15;;;1.80;;
54735;SDS011;40632;51.442;11.936;2022-08-11T11:13:21;3.55;;;1.40;;
54735;SDS011;40632;51.442;11.936;2022-08-11T11:15:48;4.30;;;1.73;;
54735;SDS011;40632;51.442;11.936;2022-08-11T11:18:15;4.65;;;2.00;;
54735;SDS011;40632;51.442;11.936;2022-08-11T11:20:47;9.57;;;1.95;;
54735;SDS011;40632;51.442;11.936;2022-08-11T11:23:17;4.80;;;2.10;;
54735;SDS011;40632;51.442;11.936;2022-08-11T11:26:04;7.93;;;2.15;;
54735;SDS011;40632;51.442;11.936;2022-08-11T11:28:54;5.05;;;1.90;;
54735;SDS011;40632;51.442;11.936;2022-08-11T11:31:45;8.32;;;2.00;;
54735;SDS011;40632;51.442;11.936;2022-08-11T11:34:23;4.43;;;1.83;;
54735;SDS011;40632;51.442;11.936;2022-08-11T11:37:03;3.95;;;2.00;;
54735;SDS011;40632;51.442;11.936;2022-08-11T11:39:30;3.92;;;1.70;;
54735;SDS011;40632;51.442;11.936;2022-08-11T11:41:59;2.92;;;1.70;;
54735;SDS011;40632;51.442;11.936;2022-08-11T11:44:27;6.68;;;2.00;;
54735;SDS011;40632;51.442;11.936;2022-08-11T11:46:54;2.42;;;1.55;;
54735;SDS011;40632;51.442;11.936;2022-08-11T11:49:21;5.35;;;1.98;;
54735;SDS011;40632;51.442;11.936;2022-08-11T11:51:49;3.92;;;1.70;;
54735;SDS011;40632;51.442;11.936;2022-08-11T11:54:16;6.35;;;1.90;;
54735;SDS011;40632;51.442;11.936;2022-08-11T11:56:44;6.10;;;1.90;;
54735;SDS011;40632;51.442;11.936;2022-08-11T11:59:13;3.22;;;1.60;;
54735;SDS011;40632;51.442;11.936;2022-08-11T12:01:39;4.28;;;1.65;;
54735;SDS011;40632;51.442;11.936;2022-08-11T12:04:06;4.68;;;1.90;;
54735;SDS011;40632;51.442;11.936;2022-08-11T12:06:31;4.07;;;2.00;;
54735;SDS011;40632;51.442;11.936;2022-08-11T12:08:58;3.38;;;1.88;;
54735;SDS011;40632;51.442;11.936;2022-08-11T12:11:25;4.57;;;1.98;;
54735;SDS011;40632;51.442;11.936;2022-08-11T12:13:54;8.38;;;1.67;;
54735;SDS011;40632;51.442;11.936;2022-08-11T12:16:25;6.82;;;1.80;;
54735;SDS011;40632;51.442;11.936;2022-08-11T12:18:52;4.43;;;2.05;;
54735;SDS011;40632;51.442;11.936;2022-08-11T12:21:19;4.82;;;1.70;;
54735;SDS011;40632;51.442;11.936;2022-08-11T12:23:46;6.88;;;1.70;;
54735;SDS011;40632;51.442;11.936;2022-08-11T12:26:13;4.07;;;1.92;;
54735;SDS011;40632;51.442;11.936;2022-08-11T12:28:39;4.22;;;1.63;;
54735;SDS011;40632;51.442;11.936;2022-08-11T12:31:05;3.30;;;1.67;;
54735;SDS011;40632;51.442;11.936;2022-08-11T12:33:34;2.60;;;1.50;;
54735;SDS011;40632;51.442;11.936;2022-08-11T12:36:00;4.10;;;1.80;;
54735;SDS011;40632;51.442;11.936;2022-08-11T12:38:26;3.13;;;1.70;;
54735;SDS011;40632;51.442;11.936;2022-08-11T12:40:53;5.65;;;1.80;;
54735;SDS011;40632;51.442;11.936;2022-08-11T12:43:20;1.52;;;0.98;;
54735;SDS011;40632;51.442;11.936;2022-08-11T12:45:48;2.92;;;1.70;;
54735;SDS011;40632;51.442;11.936;2022-08-11T12:48:18;3.92;;;1.40;;
54735;SDS011;40632;51.442;11.936;2022-08-11T12:50:49;5.90;;;1.77;;
54735;SDS011;40632;51.442;11.936;2022-08-11T12:53:20;3.25;;;1.98;;
54735;SDS011;40632;51.442;11.936;2022-08-11T12:55:53;4.22;;;1.60;;
54735;SDS011;40632;51.442;11.936;2022-08-11T12:58:20;2.97;;;1.70;;
54735;SDS011;40632;51.442;11.936;2022-08-11T13:00:46;3.88;;;1.60;;
54735;SDS011;40632;51.442;11.936;2022-08-11T13:03:12;4.90;;;1.98;;
54735;SDS011;40632;51.442;11.936;2022-08-11T13:05:39;9.57;;;2.05;;
54735;SDS011;40632;51.442;11.936;2022-08-11T13:08:08;3.35;;;1.90;;
54735;SDS011;40632;51.442;11.936;2022-08-11T13:10:34;3.40;;;1.73;;
54735;SDS011;40632;51.442;11.936;2022-08-11T13:13:02;5.63;;;1.52;;
54735;SDS011;40632;51.442;11.936;2022-08-11T13:15:28;5.80;;;1.60;;
54735;SDS011;40632;51.442;11.936;2022-08-11T13:17:54;2.35;;;1.67;;
54735;SDS011;40632;51.442;11.936;2022-08-11T13:20:21;5.60;;;1.90;;
54735;SDS011;40632;51.442;11.936;2022-08-11T13:22:49;3.17;;;2.03;;
54735;SDS011;40632;51.442;11.936;2022-08-11T13:25:20;2.88;;;1.67;;
54735;SDS011;40632;51.442;11.936;2022-08-11T13:27:48;3.63;;;1.73;;
54735;SDS011;40632;51.442;11.936;2022-08-11T13:30:15;6.85;;;2.30;;
54735;SDS011;40632;51.442;11.936;2022-08-11T13:32:43;6.65;;;1.88;;
54735;SDS011;40632;51.442;11.936;2022-08-11T13:35:11;5.60;;;1.70;;
54735;SDS011;40632;51.442;11.936;2022-08-11T13:37:37;2.15;;;1.73;;
54735;SDS011;40632;51.442;11.936;2022-08-11T13:40:03;4.95;;;1.80;;
54735;SDS011;40632;51.442;11.936;2022-08-11T13:42:33;5.60;;;2.00;;
54735;SDS011;40632;51.442;11.936;2022-08-11T13:45:00;4.03;;;2.05;;
54735;SDS011;40632;51.442;11.936;2022-08-11T13:47:26;4.75;;;1.80;;
54735;SDS011;40632;51.442;11.936;2022-08-11T13:49:53;4.55;;;1.65;;
54735;SDS011;40632;51.442;11.936;2022-08-11T13:52:20;2.55;;;1.42;;
54735;SDS011;40632;51.442;11.936;2022-08-11T13:54:46;6.80;;;1.60;;
54735;SDS011;40632;51.442;11.936;2022-08-11T13:57:13;4.47;;;1.75;;
54735;SDS011;40632;51.442;11.936;2022-08-11T13:59:42;3.95;;;1.60;;
54735;SDS011;40632;51.442;11.936;2022-08-11T14:02:11;6.18;;;1.63;;
54735;SDS011;40632;51.442;11.936;2022-08-11T14:04:39;6.25;;;1.80;;
54735;SDS011;40632;51.442;11.936;2022-08-11T14:07:07;6.05;;;1.52;;
54735;SDS011;40632;51.442;11.936;2022-08-11T14:09:36;4.63;;;1.50;;
54735;SDS011;40632;51.442;11.936;2022-08-11T14:12:06;3.53;;;1.63;;
54735;SDS011;40632;51.442;11.936;2022-08-11T14:14:34;2.80;;;1.50;;
54735;SDS011;40632;51.442;11.936;2022-08-11T14:17:04;4.65;;;1.50;;
54735;SDS011;40632;51.442;11.936;2022-08-11T14:19:31;4.47;;;1.35;;
54735;SDS011;40632;51.442;11.936;2022-08-11T14:22:00;3.00;;;1.60;;
54735;SDS011;40632;51.442;11.936;2022-08-11T14:24:28;5.25;;;1.55;;
54735;SDS011;40632;51.442;11.936;2022-08-11T14:26:55;4.38;;;1.27;;
54735;SDS011;40632;51.442;11.936;2022-08-11T14:29:22;2.95;;;1.67;;
54735;SDS011;40632;51.442;11.936;2022-08-11T14:31:52;3.13;;;1.55;;
54735;SDS011;40632;51.442;11.936;2022-08-11T14:34:22;2.20;;;1.60;;
54735;SDS011;40632;51.442;11.936;2022-08-11T14:36:50;3.75;;;1.70;;
54735;SDS011;40632;51.442;11.936;2022-08-11T14:39:18;4.05;;;1.58;;
54735;SDS011;40632;51.442;11.936;2022-08-11T14:41:47;5.93;;;2.17;;
54735;SDS011;40632;51.442;11.936;2022-08-11T14:44:14;4.95;;;1.70;;
54735;SDS011;40632;51.442;11.936;2022-08-11T14:46:41;2.90;;;1.70;;
54735;SDS011;40632;51.442;11.936;2022-08-11T14:49:08;8.35;;;2.00;;
54735;SDS011;40632;51.442;11.936;2022-08-11T14:51:39;3.72;;;1.90;;
54735;SDS011;40632;51.442;11.936;2022-08-11T14:54:06;7.68;;;1.63;;
54735;SDS011;40632;51.442;11.936;2022-08-11T14:56:32;4.10;;;1.42;;
54735;SDS011;40632;51.442;11.936;2022-08-11T14:58:58;3.72;;;1.40;;
54735;SDS011;40632;51.442;11.936;2022-08-11T15:01:24;3.47;;;1.58;;
54735;SDS011;40632;51.442;11.936;2022-08-11T15:03:50;3.55;;;1.30;;
54735;SDS011;40632;51.442;11.936;2022-08-11T15:06:16;2.70;;;1.67;;
54735;SDS011;40632;51.442;11.936;2022-08-11T15:08:45;4.95;;;1.80;;
54735;SDS011;40632;51.442;11.936;2022-08-11T15:11:12;3.08;;;1.63;;
54735;SDS011;40632;51.442;11.936;2022-08-11T15:13:39;3.05;;;1.42;;
54735;SDS011;40632;51.442;11.936;2022-08-11T15:16:05;6.28;;;1.98;;
54735;SDS011;40632;51.442;11.936;2022-08-11T15:18:31;3.92;;;1.80;;
54735;SDS011;40632;51.442;11.936;2022-08-11T15:20:58;5.43;;;2.35;;
54735;SDS011;40632;51.442;11.936;2022-08-11T15:23:24;5.13;;;1.60;;
54735;SDS011;40632;51.442;11.936;2022-08-11T15:25:53;3.35;;;1.77;;
54735;SDS011;40632;51.442;11.936;2022-08-11T15:28:21;7.50;;;1.77;;
54735;SDS011;40632;51.442;11.936;2022-08-11T15:30:52;3.55;;;1.30;;
54735;SDS011;40632;51.442;11.936;2022-08-11T15:33:20;5.15;;;2.30;;
54735;SDS011;40632;51.442;11.936;2022-08-11T15:35:48;3.35;;;1.63;;
54735;SDS011;40632;51.442;11.936;2022-08-11T15:38:14;6.80;;;1.90;;
54735;SDS011;40632;51.442;11.936;2022-08-11T15:40:43;3.55;;;2.20;;
54735;SDS011;40632;51.442;11.936;2022-08-11T15:43:13;2.25;;;1.42;;
54735;SDS011;40632;51.442;11.936;2022-08-11T15:45:43;8.20;;;1.65;;
54735;SDS011;40632;51.442;11.936;2022-08-11T15:48:13;5.63;;;1.70;;
54735;SDS011;40632;51.442;11.936;2022-08-11T15:50:45;4.60;;;1.60;;
54735;SDS011;40632;51.442;11.936;2022-08-11T15:53:16;6.70;;;1.60;;
54735;SDS011;40632;51.442;11.936;2022-08-11T15:55:48;4.72;;;1.40;;
54735;SDS011;40632;51.442;11.936;2022-08-11T15:58:18;4.93;;;1.70;;
54735;SDS011;40632;51.442;11.936;2022-08-11T16:00:45;4.75;;;2.38;;
54735;SDS011;40632;51.442;11.936;2022-08-11T16:03:14;4.43;;;1.77;;
54735;SDS011;40632;51.442;11.936;2022-08-11T16:05:42;4.40;;;1.80;;